Terminal Aerodrome Forecast
Issued by NWS North Platte, NE

Home | Current Version | Previous Version | Graphics & Text | Print | Product List | Glossary On
Versions: 1 2 3 4 5 6 7 8 9 10 11 12 13 14 15 16 17 18 19 20
000
FTUS43 KLBF 081100
TAFVTN
TAF
KVTN 081120Z 0812/0912 30009KT P6SM SKC
     FM081500 33012G19KT P6SM SCT070
     FM090100 VRB03KT P6SM SKC
     FM090800 16005KT P6SM BKN080=

USA.gov is the U.S. government's official web portal to all federal, state and local government web resources and services.